Lotsee, Oklahoma
Current Conditions -  °F | °C
As of 8:55 PM on Wednesday 22 Oct 2014 (Local Time) from KOWP Reporting Station
Clear Clear  
Wind Chill: 71°   Ceiling: Unl
Heat Index: 71°   Visibility: 10mi
Dew Point: 57°   Wind: 9mph
Humidity: 60%   Direction: 130°SE
Pressure: 30.11"   Gusts: NA
Location:  36.1933°N, 96.1589°W
Report Text: KOWP 230155Z AUTO 13008KT 10SM CLR 22/14 A3011 RMK AO2 T02170137
Loading
Personal Weather Stations






























Interactive Weather Map
Tropical Storm Tracking
New forecast layout! Learn more

10-Day Weather Forecast

Advertisements
Track Severe Weather on mobile